Terminal Aerodrome Forecast
Issued by NWS Springfield, MO

Home | Current Version | Previous Version | Text Only | Print | Product List | Glossary On
Versions: 1 2 3 4 5 6 7 8 9 10 11 12 13 14 15 16 17 18 19 20 21 22 23 24 25
000
FTUS43 KSGF 071122
TAFSGF
TAF
KSGF 071122Z 0712/0812 08005KT P6SM BKN150
     FM072100 03011KT 5SM -SN OVC030
     FM080000 36010KT 4SM -SN OVC020
     FM080200 35010KT P6SM OVC015
     FM080500 33010KT P6SM BKN035
     FM080700 33011KT P6SM SCT200=

USA.gov is the U.S. government's official web portal to all federal, state and local government web resources and services.